sensor_id;sensor_type;location;lat;lon;timestamp;temperature;humidity
7129;DHT22;3606;52.930;8.644;2024-02-23T00:00:01;9.10;99.90
7129;DHT22;3606;52.930;8.644;2024-02-23T00:02:31;9.10;99.90
7129;DHT22;3606;52.930;8.644;2024-02-23T00:04:57;9.00;99.90
7129;DHT22;3606;52.930;8.644;2024-02-23T00:07:22;9.00;99.90
7129;DHT22;3606;52.930;8.644;2024-02-23T00:09:48;8.50;99.90
7129;DHT22;3606;52.930;8.644;2024-02-23T00:12:14;7.70;99.90
7129;DHT22;3606;52.930;8.644;2024-02-23T00:14:39;7.20;99.90
7129;DHT22;3606;52.930;8.644;2024-02-23T00:17:05;6.80;99.90
7129;DHT22;3606;52.930;8.644;2024-02-23T00:19:31;6.70;99.90
7129;DHT22;3606;52.930;8.644;2024-02-23T00:21:57;6.60;99.90
7129;DHT22;3606;52.930;8.644;2024-02-23T00:24:25;6.50;99.90
7129;DHT22;3606;52.930;8.644;2024-02-23T00:26:50;6.50;99.90
7129;DHT22;3606;52.930;8.644;2024-02-23T00:29:17;6.50;99.90
7129;DHT22;3606;52.930;8.644;2024-02-23T00:31:43;6.50;99.90
7129;DHT22;3606;52.930;8.644;2024-02-23T00:34:10;6.50;99.90
7129;DHT22;3606;52.930;8.644;2024-02-23T00:36:39;6.60;99.90
7129;DHT22;3606;52.930;8.644;2024-02-23T00:39:06;6.60;99.90
7129;DHT22;3606;52.930;8.644;2024-02-23T00:41:33;6.60;99.90
7129;DHT22;3606;52.930;8.644;2024-02-23T00:43:58;6.50;99.90
7129;DHT22;3606;52.930;8.644;2024-02-23T00:46:24;6.50;99.90
7129;DHT22;3606;52.930;8.644;2024-02-23T00:48:50;6.50;99.90
7129;DHT22;3606;52.930;8.644;2024-02-23T00:51:16;6.50;99.90
7129;DHT22;3606;52.930;8.644;2024-02-23T00:53:41;6.40;99.90
7129;DHT22;3606;52.930;8.644;2024-02-23T00:56:07;6.40;99.90
7129;DHT22;3606;52.930;8.644;2024-02-23T00:58:32;6.40;99.90
7129;DHT22;3606;52.930;8.644;2024-02-23T01:00:59;6.30;99.90
7129;DHT22;3606;52.930;8.644;2024-02-23T01:03:25;6.30;99.90
7129;DHT22;3606;52.930;8.644;2024-02-23T01:05:50;6.30;99.90
7129;DHT22;3606;52.930;8.644;2024-02-23T01:08:16;6.20;99.90
7129;DHT22;3606;52.930;8.644;2024-02-23T01:10:41;6.20;99.90
7129;DHT22;3606;52.930;8.644;2024-02-23T01:13:07;6.10;99.90
7129;DHT22;3606;52.930;8.644;2024-02-23T01:15:33;6.00;99.90
7129;DHT22;3606;52.930;8.644;2024-02-23T01:17:59;5.90;99.90
7129;DHT22;3606;52.930;8.644;2024-02-23T01:20:25;5.90;99.90
7129;DHT22;3606;52.930;8.644;2024-02-23T01:22:51;5.80;99.90
7129;DHT22;3606;52.930;8.644;2024-02-23T01:25:16;5.70;99.90
7129;DHT22;3606;52.930;8.644;2024-02-23T01:27:42;5.60;99.90
7129;DHT22;3606;52.930;8.644;2024-02-23T01:30:10;5.50;99.90
7129;DHT22;3606;52.930;8.644;2024-02-23T01:32:36;5.50;99.90
7129;DHT22;3606;52.930;8.644;2024-02-23T01:35:04;5.50;99.90
7129;DHT22;3606;52.930;8.644;2024-02-23T01:37:30;5.40;99.90
7129;DHT22;3606;52.930;8.644;2024-02-23T01:39:56;5.40;99.90
7129;DHT22;3606;52.930;8.644;2024-02-23T01:42:22;5.40;99.90
7129;DHT22;3606;52.930;8.644;2024-02-23T01:44:49;5.40;99.90
7129;DHT22;3606;52.930;8.644;2024-02-23T01:47:15;5.40;99.90
7129;DHT22;3606;52.930;8.644;2024-02-23T01:49:41;5.40;99.90
7129;DHT22;3606;52.930;8.644;2024-02-23T01:52:07;5.40;99.90
7129;DHT22;3606;52.930;8.644;2024-02-23T01:54:33;5.40;99.90
7129;DHT22;3606;52.930;8.644;2024-02-23T01:57:00;5.30;99.90
7129;DHT22;3606;52.930;8.644;2024-02-23T01:59:27;5.40;99.90
7129;DHT22;3606;52.930;8.644;2024-02-23T02:01:53;5.30;99.90
7129;DHT22;3606;52.930;8.644;2024-02-23T02:04:19;5.30;99.90
7129;DHT22;3606;52.930;8.644;2024-02-23T02:06:46;5.30;99.90
7129;DHT22;3606;52.930;8.644;2024-02-23T02:09:11;5.10;99.90
7129;DHT22;3606;52.930;8.644;2024-02-23T02:11:50;5.00;99.90
7129;DHT22;3606;52.930;8.644;2024-02-23T02:14:17;5.00;99.90
7129;DHT22;3606;52.930;8.644;2024-02-23T02:16:43;5.00;99.90
7129;DHT22;3606;52.930;8.644;2024-02-23T02:19:12;5.00;99.90
7129;DHT22;3606;52.930;8.644;2024-02-23T02:21:39;5.00;99.90
7129;DHT22;3606;52.930;8.644;2024-02-23T02:24:04;5.00;99.90
7129;DHT22;3606;52.930;8.644;2024-02-23T02:26:30;5.00;99.90
7129;DHT22;3606;52.930;8.644;2024-02-23T02:28:56;5.00;99.90
7129;DHT22;3606;52.930;8.644;2024-02-23T02:31:22;5.00;99.90
7129;DHT22;3606;52.930;8.644;2024-02-23T02:33:47;5.00;99.90
7129;DHT22;3606;52.930;8.644;2024-02-23T02:36:13;5.00;99.90
7129;DHT22;3606;52.930;8.644;2024-02-23T02:38:39;5.00;99.90
7129;DHT22;3606;52.930;8.644;2024-02-23T02:41:05;5.00;99.90
7129;DHT22;3606;52.930;8.644;2024-02-23T02:43:31;5.00;99.90
7129;DHT22;3606;52.930;8.644;2024-02-23T02:45:58;5.00;99.90
7129;DHT22;3606;52.930;8.644;2024-02-23T02:48:24;5.00;99.90
7129;DHT22;3606;52.930;8.644;2024-02-23T02:50:50;4.90;99.90
7129;DHT22;3606;52.930;8.644;2024-02-23T02:53:17;4.80;99.90
7129;DHT22;3606;52.930;8.644;2024-02-23T02:55:43;4.70;99.90
7129;DHT22;3606;52.930;8.644;2024-02-23T02:58:12;4.60;99.90
7129;DHT22;3606;52.930;8.644;2024-02-23T03:00:38;4.70;99.90
7129;DHT22;3606;52.930;8.644;2024-02-23T03:03:04;4.70;99.90
7129;DHT22;3606;52.930;8.644;2024-02-23T03:05:30;4.60;99.90
7129;DHT22;3606;52.930;8.644;2024-02-23T03:07:55;4.70;99.90
7129;DHT22;3606;52.930;8.644;2024-02-23T03:10:21;4.60;99.90
7129;DHT22;3606;52.930;8.644;2024-02-23T03:12:47;4.70;99.90
7129;DHT22;3606;52.930;8.644;2024-02-23T03:15:12;4.70;99.90
7129;DHT22;3606;52.930;8.644;2024-02-23T03:17:38;4.60;99.90
7129;DHT22;3606;52.930;8.644;2024-02-23T03:20:04;4.60;99.90
7129;DHT22;3606;52.930;8.644;2024-02-23T03:22:37;4.70;99.90
7129;DHT22;3606;52.930;8.644;2024-02-23T03:25:03;4.80;99.90
7129;DHT22;3606;52.930;8.644;2024-02-23T03:27:38;4.80;99.90
7129;DHT22;3606;52.930;8.644;2024-02-23T03:30:04;4.90;99.90
7129;DHT22;3606;52.930;8.644;2024-02-23T03:32:30;4.90;99.90
7129;DHT22;3606;52.930;8.644;2024-02-23T03:35:06;4.90;99.90
7129;DHT22;3606;52.930;8.644;2024-02-23T03:37:32;5.00;99.90
7129;DHT22;3606;52.930;8.644;2024-02-23T03:39:58;4.90;99.90
7129;DHT22;3606;52.930;8.644;2024-02-23T03:42:25;4.90;99.90
7129;DHT22;3606;52.930;8.644;2024-02-23T03:44:50;5.00;99.90
7129;DHT22;3606;52.930;8.644;2024-02-23T03:47:16;5.00;99.90
7129;DHT22;3606;52.930;8.644;2024-02-23T03:49:42;5.00;99.90
7129;DHT22;3606;52.930;8.644;2024-02-23T03:52:07;5.00;99.90
7129;DHT22;3606;52.930;8.644;2024-02-23T03:54:33;4.90;99.90
7129;DHT22;3606;52.930;8.644;2024-02-23T03:56:58;4.90;99.90
7129;DHT22;3606;52.930;8.644;2024-02-23T03:59:24;5.00;99.90
7129;DHT22;3606;52.930;8.644;2024-02-23T04:01:50;5.00;99.90
7129;DHT22;3606;52.930;8.644;2024-02-23T04:04:15;5.00;99.90
7129;DHT22;3606;52.930;8.644;2024-02-23T04:06:41;5.00;99.90
7129;DHT22;3606;52.930;8.644;2024-02-23T04:09:06;5.00;99.90
7129;DHT22;3606;52.930;8.644;2024-02-23T04:11:34;5.00;99.90
7129;DHT22;3606;52.930;8.644;2024-02-23T04:13:59;5.00;99.90
7129;DHT22;3606;52.930;8.644;2024-02-23T04:16:26;5.00;99.90
7129;DHT22;3606;52.930;8.644;2024-02-23T04:18:53;5.00;99.90
7129;DHT22;3606;52.930;8.644;2024-02-23T04:21:19;5.00;99.90
7129;DHT22;3606;52.930;8.644;2024-02-23T04:23:44;5.00;99.90
7129;DHT22;3606;52.930;8.644;2024-02-23T04:26:10;5.00;99.90
7129;DHT22;3606;52.930;8.644;2024-02-23T04:28:40;4.90;99.90
7129;DHT22;3606;52.930;8.644;2024-02-23T04:31:06;4.80;99.90
7129;DHT22;3606;52.930;8.644;2024-02-23T04:33:31;4.80;99.90
7129;DHT22;3606;52.930;8.644;2024-02-23T04:35:59;4.80;99.90
7129;DHT22;3606;52.930;8.644;2024-02-23T04:38:24;4.70;99.90
7129;DHT22;3606;52.930;8.644;2024-02-23T04:40:50;4.70;99.90
7129;DHT22;3606;52.930;8.644;2024-02-23T04:43:15;4.70;99.90
7129;DHT22;3606;52.930;8.644;2024-02-23T04:45:41;4.60;99.90
7129;DHT22;3606;52.930;8.644;2024-02-23T04:48:07;4.50;99.90
7129;DHT22;3606;52.930;8.644;2024-02-23T04:50:33;4.40;99.90
7129;DHT22;3606;52.930;8.644;2024-02-23T04:52:58;4.30;99.90
7129;DHT22;3606;52.930;8.644;2024-02-23T04:55:24;4.20;99.90
7129;DHT22;3606;52.930;8.644;2024-02-23T04:57:49;4.10;99.90
7129;DHT22;3606;52.930;8.644;2024-02-23T05:00:15;4.10;99.90
7129;DHT22;3606;52.930;8.644;2024-02-23T05:02:41;4.10;99.90
7129;DHT22;3606;52.930;8.644;2024-02-23T05:05:07;3.90;99.90
7129;DHT22;3606;52.930;8.644;2024-02-23T05:07:33;4.00;99.90
7129;DHT22;3606;52.930;8.644;2024-02-23T05:09:59;4.00;99.90
7129;DHT22;3606;52.930;8.644;2024-02-23T05:12:25;4.10;99.90
7129;DHT22;3606;52.930;8.644;2024-02-23T05:14:51;4.10;99.90
7129;DHT22;3606;52.930;8.644;2024-02-23T05:17:17;4.10;99.90
7129;DHT22;3606;52.930;8.644;2024-02-23T05:19:42;4.20;99.90
7129;DHT22;3606;52.930;8.644;2024-02-23T05:22:08;4.30;99.90
7129;DHT22;3606;52.930;8.644;2024-02-23T05:24:34;4.40;99.90
7129;DHT22;3606;52.930;8.644;2024-02-23T05:26:59;4.50;99.90
7129;DHT22;3606;52.930;8.644;2024-02-23T05:29:28;4.50;99.90
7129;DHT22;3606;52.930;8.644;2024-02-23T05:31:54;4.60;99.90
7129;DHT22;3606;52.930;8.644;2024-02-23T05:34:20;4.60;99.90
7129;DHT22;3606;52.930;8.644;2024-02-23T05:36:47;4.50;99.90
7129;DHT22;3606;52.930;8.644;2024-02-23T05:39:13;4.60;99.90
7129;DHT22;3606;52.930;8.644;2024-02-23T05:41:41;4.70;99.90
7129;DHT22;3606;52.930;8.644;2024-02-23T05:44:07;4.60;99.90
7129;DHT22;3606;52.930;8.644;2024-02-23T05:46:33;4.60;99.90
7129;DHT22;3606;52.930;8.644;2024-02-23T05:49:00;4.60;99.90
7129;DHT22;3606;52.930;8.644;2024-02-23T05:51:25;4.70;99.90
7129;DHT22;3606;52.930;8.644;2024-02-23T05:53:51;4.80;99.90
7129;DHT22;3606;52.930;8.644;2024-02-23T05:56:17;4.80;99.90
7129;DHT22;3606;52.930;8.644;2024-02-23T05:58:42;4.90;99.90
7129;DHT22;3606;52.930;8.644;2024-02-23T06:01:08;4.90;99.90
7129;DHT22;3606;52.930;8.644;2024-02-23T06:03:33;4.90;99.90
7129;DHT22;3606;52.930;8.644;2024-02-23T06:05:59;4.90;99.90
7129;DHT22;3606;52.930;8.644;2024-02-23T06:08:25;4.90;99.90
7129;DHT22;3606;52.930;8.644;2024-02-23T06:10:50;4.80;99.90
7129;DHT22;3606;52.930;8.644;2024-02-23T06:13:16;4.70;99.90
7129;DHT22;3606;52.930;8.644;2024-02-23T06:15:42;4.70;99.90
7129;DHT22;3606;52.930;8.644;2024-02-23T06:18:07;4.70;99.90
7129;DHT22;3606;52.930;8.644;2024-02-23T06:20:33;4.60;99.90
7129;DHT22;3606;52.930;8.644;2024-02-23T06:22:58;4.60;99.90
7129;DHT22;3606;52.930;8.644;2024-02-23T06:25:24;4.60;99.90
7129;DHT22;3606;52.930;8.644;2024-02-23T06:27:50;4.70;99.90
7129;DHT22;3606;52.930;8.644;2024-02-23T06:30:15;4.70;99.90
7129;DHT22;3606;52.930;8.644;2024-02-23T06:32:41;4.70;99.90
7129;DHT22;3606;52.930;8.644;2024-02-23T06:35:08;4.70;99.90
7129;DHT22;3606;52.930;8.644;2024-02-23T06:37:34;4.70;99.90
7129;DHT22;3606;52.930;8.644;2024-02-23T06:39:59;4.70;99.90
7129;DHT22;3606;52.930;8.644;2024-02-23T06:42:25;4.70;99.90
7129;DHT22;3606;52.930;8.644;2024-02-23T06:44:51;4.80;99.90
7129;DHT22;3606;52.930;8.644;2024-02-23T06:47:16;4.70;99.90
7129;DHT22;3606;52.930;8.644;2024-02-23T06:49:43;4.80;99.90
7129;DHT22;3606;52.930;8.644;2024-02-23T06:52:09;4.80;99.90
7129;DHT22;3606;52.930;8.644;2024-02-23T06:54:35;4.80;99.90
7129;DHT22;3606;52.930;8.644;2024-02-23T06:57:01;4.80;99.90
7129;DHT22;3606;52.930;8.644;2024-02-23T06:59:26;4.80;99.90
7129;DHT22;3606;52.930;8.644;2024-02-23T07:01:52;4.90;99.90
7129;DHT22;3606;52.930;8.644;2024-02-23T07:04:18;4.90;99.90
7129;DHT22;3606;52.930;8.644;2024-02-23T07:06:44;4.90;99.90
7129;DHT22;3606;52.930;8.644;2024-02-23T07:09:10;5.00;99.90
7129;DHT22;3606;52.930;8.644;2024-02-23T07:11:37;5.00;99.90
7129;DHT22;3606;52.930;8.644;2024-02-23T07:14:03;5.00;99.90
7129;DHT22;3606;52.930;8.644;2024-02-23T07:16:29;5.00;99.90
7129;DHT22;3606;52.930;8.644;2024-02-23T07:18:54;5.10;99.90
7129;DHT22;3606;52.930;8.644;2024-02-23T07:21:20;5.00;99.90
7129;DHT22;3606;52.930;8.644;2024-02-23T07:23:46;5.10;99.90
7129;DHT22;3606;52.930;8.644;2024-02-23T07:26:12;5.20;99.90
7129;DHT22;3606;52.930;8.644;2024-02-23T07:28:37;5.20;99.90
7129;DHT22;3606;52.930;8.644;2024-02-23T07:31:03;5.30;99.90
7129;DHT22;3606;52.930;8.644;2024-02-23T07:33:29;5.30;99.90
7129;DHT22;3606;52.930;8.644;2024-02-23T07:35:54;5.40;99.90
7129;DHT22;3606;52.930;8.644;2024-02-23T07:38:20;5.40;99.90
7129;DHT22;3606;52.930;8.644;2024-02-23T07:40:45;5.40;99.90
7129;DHT22;3606;52.930;8.644;2024-02-23T07:43:11;5.50;99.90
7129;DHT22;3606;52.930;8.644;2024-02-23T07:45:37;5.80;99.90
7129;DHT22;3606;52.930;8.644;2024-02-23T07:48:03;6.50;99.90
7129;DHT22;3606;52.930;8.644;2024-02-23T07:50:29;7.40;99.90
7129;DHT22;3606;52.930;8.644;2024-02-23T07:52:55;8.10;99.90
7129;DHT22;3606;52.930;8.644;2024-02-23T07:55:20;8.50;99.90
7129;DHT22;3606;52.930;8.644;2024-02-23T07:57:47;8.70;99.90
7129;DHT22;3606;52.930;8.644;2024-02-23T08:00:13;9.10;99.90
7129;DHT22;3606;52.930;8.644;2024-02-23T08:02:39;9.10;99.90
7129;DHT22;3606;52.930;8.644;2024-02-23T08:05:08;9.50;99.90
7129;DHT22;3606;52.930;8.644;2024-02-23T08:07:35;9.00;99.90
7129;DHT22;3606;52.930;8.644;2024-02-23T08:10:01;8.30;99.90
7129;DHT22;3606;52.930;8.644;2024-02-23T08:12:28;7.50;99.90
7129;DHT22;3606;52.930;8.644;2024-02-23T08:14:53;7.20;99.90
7129;DHT22;3606;52.930;8.644;2024-02-23T08:17:19;7.00;99.90
7129;DHT22;3606;52.930;8.644;2024-02-23T08:19:45;6.80;99.90
7129;DHT22;3606;52.930;8.644;2024-02-23T08:22:11;6.60;99.90
7129;DHT22;3606;52.930;8.644;2024-02-23T08:24:37;6.70;99.90
7129;DHT22;3606;52.930;8.644;2024-02-23T08:27:02;6.80;99.90
7129;DHT22;3606;52.930;8.644;2024-02-23T08:29:28;6.90;99.90
7129;DHT22;3606;52.930;8.644;2024-02-23T08:31:54;6.90;99.90
7129;DHT22;3606;52.930;8.644;2024-02-23T08:34:19;7.10;99.90
7129;DHT22;3606;52.930;8.644;2024-02-23T08:36:45;7.10;99.90
7129;DHT22;3606;52.930;8.644;2024-02-23T08:39:10;7.10;99.90
7129;DHT22;3606;52.930;8.644;2024-02-23T08:41:36;7.10;99.90
7129;DHT22;3606;52.930;8.644;2024-02-23T08:44:02;7.10;99.90
7129;DHT22;3606;52.930;8.644;2024-02-23T08:46:28;7.10;99.90
7129;DHT22;3606;52.930;8.644;2024-02-23T08:48:53;7.30;99.90
7129;DHT22;3606;52.930;8.644;2024-02-23T08:51:19;7.60;99.90
7129;DHT22;3606;52.930;8.644;2024-02-23T08:53:44;7.70;99.90
7129;DHT22;3606;52.930;8.644;2024-02-23T08:56:11;7.60;99.90
7129;DHT22;3606;52.930;8.644;2024-02-23T08:58:37;7.70;99.90
7129;DHT22;3606;52.930;8.644;2024-02-23T09:01:03;7.60;99.90
7129;DHT22;3606;52.930;8.644;2024-02-23T09:03:29;7.60;99.90
7129;DHT22;3606;52.930;8.644;2024-02-23T09:05:55;7.60;99.90
7129;DHT22;3606;52.930;8.644;2024-02-23T09:08:21;7.60;99.90
7129;DHT22;3606;52.930;8.644;2024-02-23T09:10:46;7.60;99.90
7129;DHT22;3606;52.930;8.644;2024-02-23T09:13:12;7.60;99.90
7129;DHT22;3606;52.930;8.644;2024-02-23T09:15:38;7.60;99.90
7129;DHT22;3606;52.930;8.644;2024-02-23T09:18:03;7.60;99.90
7129;DHT22;3606;52.930;8.644;2024-02-23T09:20:30;7.60;99.90
7129;DHT22;3606;52.930;8.644;2024-02-23T09:22:55;7.50;99.90
7129;DHT22;3606;52.930;8.644;2024-02-23T09:25:21;7.40;99.90
7129;DHT22;3606;52.930;8.644;2024-02-23T09:27:46;7.30;99.90
7129;DHT22;3606;52.930;8.644;2024-02-23T09:30:13;7.20;99.90
7129;DHT22;3606;52.930;8.644;2024-02-23T09:32:39;7.20;99.90
7129;DHT22;3606;52.930;8.644;2024-02-23T09:35:05;7.20;99.90
7129;DHT22;3606;52.930;8.644;2024-02-23T09:37:32;7.20;99.90
7129;DHT22;3606;52.930;8.644;2024-02-23T09:39:58;7.20;99.90
7129;DHT22;3606;52.930;8.644;2024-02-23T09:42:23;7.30;99.90
7129;DHT22;3606;52.930;8.644;2024-02-23T09:44:57;7.40;99.90
7129;DHT22;3606;52.930;8.644;2024-02-23T09:47:28;7.50;99.90
7129;DHT22;3606;52.930;8.644;2024-02-23T09:49:54;7.60;99.90
7129;DHT22;3606;52.930;8.644;2024-02-23T09:52:21;7.60;99.90
7129;DHT22;3606;52.930;8.644;2024-02-23T09:54:47;7.60;99.90
7129;DHT22;3606;52.930;8.644;2024-02-23T09:57:14;7.60;99.90
7129;DHT22;3606;52.930;8.644;2024-02-23T09:59:40;7.70;99.90
7129;DHT22;3606;52.930;8.644;2024-02-23T10:02:08;7.80;99.90
7129;DHT22;3606;52.930;8.644;2024-02-23T10:04:38;7.80;99.90
7129;DHT22;3606;52.930;8.644;2024-02-23T10:07:07;7.80;99.90
7129;DHT22;3606;52.930;8.644;2024-02-23T10:09:33;7.80;99.90
7129;DHT22;3606;52.930;8.644;2024-02-23T10:11:59;7.90;99.90
7129;DHT22;3606;52.930;8.644;2024-02-23T10:14:24;7.90;99.90
7129;DHT22;3606;52.930;8.644;2024-02-23T10:16:50;7.80;99.90
7129;DHT22;3606;52.930;8.644;2024-02-23T10:19:19;7.90;99.90
7129;DHT22;3606;52.930;8.644;2024-02-23T10:21:46;8.10;99.90
7129;DHT22;3606;52.930;8.644;2024-02-23T10:24:11;8.20;99.90
7129;DHT22;3606;52.930;8.644;2024-02-23T10:26:37;8.40;99.90
7129;DHT22;3606;52.930;8.644;2024-02-23T10:29:03;8.50;99.90
7129;DHT22;3606;52.930;8.644;2024-02-23T10:31:34;8.50;99.90
7129;DHT22;3606;52.930;8.644;2024-02-23T10:34:06;8.40;99.90
7129;DHT22;3606;52.930;8.644;2024-02-23T10:36:36;8.40;99.90
7129;DHT22;3606;52.930;8.644;2024-02-23T10:39:04;8.40;99.90
7129;DHT22;3606;52.930;8.644;2024-02-23T10:41:34;8.50;99.90
7129;DHT22;3606;52.930;8.644;2024-02-23T10:44:02;8.40;99.90
7129;DHT22;3606;52.930;8.644;2024-02-23T10:46:31;8.30;99.90
7129;DHT22;3606;52.930;8.644;2024-02-23T10:48:58;8.30;99.90
7129;DHT22;3606;52.930;8.644;2024-02-23T10:51:28;8.30;99.90
7129;DHT22;3606;52.930;8.644;2024-02-23T10:53:54;8.10;99.90
7129;DHT22;3606;52.930;8.644;2024-02-23T10:56:20;8.10;99.90
7129;DHT22;3606;52.930;8.644;2024-02-23T10:58:48;8.20;99.90
7129;DHT22;3606;52.930;8.644;2024-02-23T11:01:14;8.20;99.90
7129;DHT22;3606;52.930;8.644;2024-02-23T11:03:42;8.40;99.90
7129;DHT22;3606;52.930;8.644;2024-02-23T11:06:08;8.50;99.90
7129;DHT22;3606;52.930;8.644;2024-02-23T11:08:34;8.70;99.90
7129;DHT22;3606;52.930;8.644;2024-02-23T11:11:08;8.70;99.90
7129;DHT22;3606;52.930;8.644;2024-02-23T11:13:38;8.70;99.90
7129;DHT22;3606;52.930;8.644;2024-02-23T11:16:04;8.60;99.90
7129;DHT22;3606;52.930;8.644;2024-02-23T11:18:31;8.60;99.90
7129;DHT22;3606;52.930;8.644;2024-02-23T11:21:00;8.70;99.90
7129;DHT22;3606;52.930;8.644;2024-02-23T11:23:27;8.70;99.90
7129;DHT22;3606;52.930;8.644;2024-02-23T11:26:05;8.70;99.90
7129;DHT22;3606;52.930;8.644;2024-02-23T11:28:42;8.90;99.90
7129;DHT22;3606;52.930;8.644;2024-02-23T11:31:15;9.20;99.90
7129;DHT22;3606;52.930;8.644;2024-02-23T11:34:01;9.60;99.90
7129;DHT22;3606;52.930;8.644;2024-02-23T11:36:28;11.00;99.90
7129;DHT22;3606;52.930;8.644;2024-02-23T11:38:56;11.00;99.90
7129;DHT22;3606;52.930;8.644;2024-02-23T11:41:22;10.50;99.90
7129;DHT22;3606;52.930;8.644;2024-02-23T11:43:52;10.10;99.90
7129;DHT22;3606;52.930;8.644;2024-02-23T11:46:19;9.80;99.90
7129;DHT22;3606;52.930;8.644;2024-02-23T11:48:45;9.60;99.90
7129;DHT22;3606;52.930;8.644;2024-02-23T11:51:13;9.40;99.90
7129;DHT22;3606;52.930;8.644;2024-02-23T11:53:40;9.30;99.90
7129;DHT22;3606;52.930;8.644;2024-02-23T11:56:06;9.30;99.90
7129;DHT22;3606;52.930;8.644;2024-02-23T11:58:35;9.40;99.90
7129;DHT22;3606;52.930;8.644;2024-02-23T12:01:01;9.40;99.90
7129;DHT22;3606;52.930;8.644;2024-02-23T12:03:31;9.40;99.90
7129;DHT22;3606;52.930;8.644;2024-02-23T12:06:03;9.40;99.90
7129;DHT22;3606;52.930;8.644;2024-02-23T12:08:30;9.20;99.90
7129;DHT22;3606;52.930;8.644;2024-02-23T12:11:03;9.30;99.90
7129;DHT22;3606;52.930;8.644;2024-02-23T12:13:29;9.20;99.90
7129;DHT22;3606;52.930;8.644;2024-02-23T12:15:55;9.10;99.90
7129;DHT22;3606;52.930;8.644;2024-02-23T12:18:24;9.10;99.90
7129;DHT22;3606;52.930;8.644;2024-02-23T12:20:52;8.90;99.90
7129;DHT22;3606;52.930;8.644;2024-02-23T12:23:18;8.80;99.90
7129;DHT22;3606;52.930;8.644;2024-02-23T12:25:56;8.80;99.90
7129;DHT22;3606;52.930;8.644;2024-02-23T12:28:23;8.80;99.90
7129;DHT22;3606;52.930;8.644;2024-02-23T12:31:04;8.70;99.90
7129;DHT22;3606;52.930;8.644;2024-02-23T12:33:35;8.70;99.90
7129;DHT22;3606;52.930;8.644;2024-02-23T12:36:02;8.70;99.90
7129;DHT22;3606;52.930;8.644;2024-02-23T12:38:28;8.60;99.90
7129;DHT22;3606;52.930;8.644;2024-02-23T12:40:53;8.60;99.90
7129;DHT22;3606;52.930;8.644;2024-02-23T12:43:19;8.60;99.90
7129;DHT22;3606;52.930;8.644;2024-02-23T12:45:53;8.60;99.90
7129;DHT22;3606;52.930;8.644;2024-02-23T12:48:20;8.60;99.90
7129;DHT22;3606;52.930;8.644;2024-02-23T12:50:47;8.70;99.90
7129;DHT22;3606;52.930;8.644;2024-02-23T12:53:33;8.90;99.90
7129;DHT22;3606;52.930;8.644;2024-02-23T12:58:43;9.60;99.90
7129;DHT22;3606;52.930;8.644;2024-02-23T13:01:09;9.80;99.90
7129;DHT22;3606;52.930;8.644;2024-02-23T13:03:37;10.30;99.90
7129;DHT22;3606;52.930;8.644;2024-02-23T13:06:04;10.50;99.90
7129;DHT22;3606;52.930;8.644;2024-02-23T13:08:30;10.80;99.90
7129;DHT22;3606;52.930;8.644;2024-02-23T13:10:56;10.70;99.90
7129;DHT22;3606;52.930;8.644;2024-02-23T13:13:23;10.60;99.90
7129;DHT22;3606;52.930;8.644;2024-02-23T13:15:51;10.20;99.90
7129;DHT22;3606;52.930;8.644;2024-02-23T13:18:16;10.40;99.90
7129;DHT22;3606;52.930;8.644;2024-02-23T13:20:42;11.00;99.90
7129;DHT22;3606;52.930;8.644;2024-02-23T13:23:08;10.80;99.90
7129;DHT22;3606;52.930;8.644;2024-02-23T13:25:35;10.70;99.90
7129;DHT22;3606;52.930;8.644;2024-02-23T13:28:01;10.70;99.90
7129;DHT22;3606;52.930;8.644;2024-02-23T13:30:27;10.70;99.90
7129;DHT22;3606;52.930;8.644;2024-02-23T13:32:53;11.00;99.90
7129;DHT22;3606;52.930;8.644;2024-02-23T13:35:18;11.00;99.90
7129;DHT22;3606;52.930;8.644;2024-02-23T13:37:44;10.50;99.90
7129;DHT22;3606;52.930;8.644;2024-02-23T13:40:10;10.20;99.90
7129;DHT22;3606;52.930;8.644;2024-02-23T13:42:37;10.00;99.90
7129;DHT22;3606;52.930;8.644;2024-02-23T13:45:06;10.00;99.90
7129;DHT22;3606;52.930;8.644;2024-02-23T13:47:33;9.90;99.90
7129;DHT22;3606;52.930;8.644;2024-02-23T13:49:58;9.80;99.90
7129;DHT22;3606;52.930;8.644;2024-02-23T13:52:24;9.60;99.90
7129;DHT22;3606;52.930;8.644;2024-02-23T13:54:49;9.50;99.90
7129;DHT22;3606;52.930;8.644;2024-02-23T13:57:15;9.40;99.90
7129;DHT22;3606;52.930;8.644;2024-02-23T13:59:41;9.20;99.90
7129;DHT22;3606;52.930;8.644;2024-02-23T14:02:06;9.10;99.90
7129;DHT22;3606;52.930;8.644;2024-02-23T14:04:32;9.00;99.90
7129;DHT22;3606;52.930;8.644;2024-02-23T14:06:58;9.00;99.90
7129;DHT22;3606;52.930;8.644;2024-02-23T14:09:24;9.00;99.90
7129;DHT22;3606;52.930;8.644;2024-02-23T14:11:49;9.00;99.90
7129;DHT22;3606;52.930;8.644;2024-02-23T14:14:15;9.10;99.90
7129;DHT22;3606;52.930;8.644;2024-02-23T14:16:41;9.20;99.90
7129;DHT22;3606;52.930;8.644;2024-02-23T14:19:07;9.30;99.90
7129;DHT22;3606;52.930;8.644;2024-02-23T14:21:33;9.60;99.90
7129;DHT22;3606;52.930;8.644;2024-02-23T14:24:01;9.80;99.90
7129;DHT22;3606;52.930;8.644;2024-02-23T14:26:27;9.90;99.90
7129;DHT22;3606;52.930;8.644;2024-02-23T14:28:52;9.80;99.90
7129;DHT22;3606;52.930;8.644;2024-02-23T14:31:18;9.70;99.90
7129;DHT22;3606;52.930;8.644;2024-02-23T14:33:44;9.70;99.90
7129;DHT22;3606;52.930;8.644;2024-02-23T14:36:09;9.90;99.90
7129;DHT22;3606;52.930;8.644;2024-02-23T14:38:35;10.50;99.90
7129;DHT22;3606;52.930;8.644;2024-02-23T14:41:00;10.50;99.90
7129;DHT22;3606;52.930;8.644;2024-02-23T14:43:26;10.30;99.90
7129;DHT22;3606;52.930;8.644;2024-02-23T14:45:51;10.10;99.90
7129;DHT22;3606;52.930;8.644;2024-02-23T14:48:18;9.80;99.90
7129;DHT22;3606;52.930;8.644;2024-02-23T14:50:44;9.50;99.90
7129;DHT22;3606;52.930;8.644;2024-02-23T14:53:09;9.40;99.90
7129;DHT22;3606;52.930;8.644;2024-02-23T14:55:37;9.20;99.90
7129;DHT22;3606;52.930;8.644;2024-02-23T14:58:02;8.70;99.90
7129;DHT22;3606;52.930;8.644;2024-02-23T15:00:28;8.00;99.90
7129;DHT22;3606;52.930;8.644;2024-02-23T15:02:56;7.40;99.90
7129;DHT22;3606;52.930;8.644;2024-02-23T15:05:22;7.10;99.90
7129;DHT22;3606;52.930;8.644;2024-02-23T15:07:48;6.90;99.90
7129;DHT22;3606;52.930;8.644;2024-02-23T15:10:14;7.00;99.90
7129;DHT22;3606;52.930;8.644;2024-02-23T15:12:39;7.00;99.90
7129;DHT22;3606;52.930;8.644;2024-02-23T15:15:05;7.00;99.90
7129;DHT22;3606;52.930;8.644;2024-02-23T15:17:32;7.00;99.90
7129;DHT22;3606;52.930;8.644;2024-02-23T15:19:58;7.10;99.90
7129;DHT22;3606;52.930;8.644;2024-02-23T15:22:24;7.00;99.90
7129;DHT22;3606;52.930;8.644;2024-02-23T15:24:51;7.00;99.90
7129;DHT22;3606;52.930;8.644;2024-02-23T15:27:18;7.10;99.90
7129;DHT22;3606;52.930;8.644;2024-02-23T15:29:43;7.10;99.90
7129;DHT22;3606;52.930;8.644;2024-02-23T15:32:09;7.10;99.90
7129;DHT22;3606;52.930;8.644;2024-02-23T15:34:38;7.10;99.90
7129;DHT22;3606;52.930;8.644;2024-02-23T15:37:04;7.20;99.90
7129;DHT22;3606;52.930;8.644;2024-02-23T15:39:29;7.20;99.90
7129;DHT22;3606;52.930;8.644;2024-02-23T15:41:55;7.20;99.90
7129;DHT22;3606;52.930;8.644;2024-02-23T15:44:21;7.30;99.90
7129;DHT22;3606;52.930;8.644;2024-02-23T15:46:47;7.30;99.90
7129;DHT22;3606;52.930;8.644;2024-02-23T15:49:12;7.30;99.90
7129;DHT22;3606;52.930;8.644;2024-02-23T15:51:38;7.30;99.90
7129;DHT22;3606;52.930;8.644;2024-02-23T15:54:04;7.30;99.90
7129;DHT22;3606;52.930;8.644;2024-02-23T15:56:30;7.30;99.90
7129;DHT22;3606;52.930;8.644;2024-02-23T15:58:56;7.30;99.90
7129;DHT22;3606;52.930;8.644;2024-02-23T16:01:22;7.30;99.90
7129;DHT22;3606;52.930;8.644;2024-02-23T16:03:48;7.30;99.90
7129;DHT22;3606;52.930;8.644;2024-02-23T16:06:14;7.20;99.90
7129;DHT22;3606;52.930;8.644;2024-02-23T16:08:40;7.30;99.90
7129;DHT22;3606;52.930;8.644;2024-02-23T16:11:10;7.20;99.90
7129;DHT22;3606;52.930;8.644;2024-02-23T16:13:37;7.20;99.90